Time;durP1;ratioP1;P1;durP2;ratioP2;P2;SDS_P1;SDS_P2;PMS_P1;PMS_P2;Temp;Humidity;BMP_temperature;BMP_pressure;BME280_temperature;BME280_humidity;BME280_pressure;Samples;Min_cycle;Max_cycle;Signal;HPM_P1;HPM_P2
2021/08/19 00:01:49;;;;;;;4.75;2.80;;;24.60;57.10;;;;;;4998617;28;20185;-74
2021/08/19 00:04:16;;;;;;;6.73;2.67;;;24.50;58.40;;;;;;4992868;28;20192;-73
2021/08/19 00:06:43;;;;;;;4.70;2.58;;;24.60;59.70;;;;;;5003719;28;20543;-73
2021/08/19 00:09:10;;;;;;;5.75;2.65;;;24.60;59.70;;;;;;5000476;28;20211;-73
2021/08/19 00:11:36;;;;;;;4.23;2.77;;;24.70;59.10;;;;;;5001099;28;20189;-73
2021/08/19 00:14:02;;;;;;;4.05;2.38;;;24.70;59.90;;;;;;5002062;28;20298;-74
2021/08/19 00:16:29;;;;;;;3.78;2.55;;;24.70;59.70;;;;;;5005611;28;20185;-73
2021/08/19 00:18:55;;;;;;;6.22;2.78;;;24.70;57.30;;;;;;5001842;28;20685;-73
2021/08/19 00:21:22;;;;;;;6.22;3.03;;;24.60;57.80;;;;;;5002538;28;20224;-73
2021/08/19 00:23:49;;;;;;;5.75;2.70;;;24.50;57.80;;;;;;4983701;28;20247;-72
2021/08/19 00:26:15;;;;;;;3.97;2.70;;;24.50;57.50;;;;;;5002694;28;20242;-73
2021/08/19 00:28:41;;;;;;;4.05;2.58;;;24.40;57.30;;;;;;5000324;28;20228;-74
2021/08/19 00:31:09;;;;;;;5.75;2.83;;;24.40;57.60;;;;;;5003676;28;20248;-73
2021/08/19 00:33:35;;;;;;;2.83;2.33;;;24.30;57.10;;;;;;4996801;28;20302;-73
2021/08/19 00:36:02;;;;;;;3.88;2.88;;;24.30;57.20;;;;;;4994595;28;20822;-74
2021/08/19 00:38:28;;;;;;;5.87;2.30;;;24.30;56.50;;;;;;4987640;28;20180;-73
2021/08/19 00:40:54;;;;;;;5.27;2.50;;;24.30;55.60;;;;;;5000557;28;20756;-73
2021/08/19 00:43:21;;;;;;;4.75;2.70;;;24.40;55.90;;;;;;5000483;28;20220;-72
2021/08/19 00:45:48;;;;;;;5.20;2.70;;;24.40;55.40;;;;;;5002634;28;20189;-74
2021/08/19 00:48:14;;;;;;;4.45;2.40;;;24.40;55.40;;;;;;5003130;28;20328;-72
2021/08/19 00:50:43;;;;;;;3.08;2.45;;;24.30;55.60;;;;;;4999736;28;20196;-74
2021/08/19 00:53:10;;;;;;;5.80;2.55;;;24.30;55.00;;;;;;5015276;28;20212;-74
2021/08/19 00:55:37;;;;;;;4.37;2.43;;;24.30;55.30;;;;;;5001177;28;20180;-74
2021/08/19 00:58:03;;;;;;;3.03;2.57;;;24.30;54.30;;;;;;5002242;28;20188;-74
2021/08/19 01:00:29;;;;;;;4.00;2.45;;;24.30;54.10;;;;;;4987812;28;20593;-74
2021/08/19 01:02:58;;;;;;;4.28;2.40;;;24.30;54.50;;;;;;5000407;28;20204;-76
2021/08/19 01:05:31;;;;;;;2.97;2.43;;;24.30;54.60;;;;;;4988966;28;20675;-72
2021/08/19 01:08:01;;;;;;;4.57;2.20;;;24.30;54.20;;;;;;4999857;28;20207;-75
2021/08/19 01:10:28;;;;;;;5.55;2.42;;;24.30;54.90;;;;;;4999589;28;20785;-74
2021/08/19 01:12:56;;;;;;;3.75;2.60;;;24.30;55.80;;;;;;5004383;28;20212;-74
2021/08/19 01:15:23;;;;;;;4.38;2.65;;;24.30;54.30;;;;;;5000754;28;20190;-75
2021/08/19 01:18:01;;;;;;;4.20;2.20;;;24.30;53.90;;;;;;4999885;28;20222;-74
2021/08/19 01:20:36;;;;;;;3.25;2.55;;;24.30;54.60;;;;;;5002339;28;20294;-72
2021/08/19 01:23:03;;;;;;;2.47;2.13;;;24.30;54.40;;;;;;5002548;28;20196;-74
2021/08/19 01:25:31;;;;;;;3.00;2.47;;;24.20;53.60;;;;;;4997000;28;20217;-75
2021/08/19 01:27:58;;;;;;;13.13;2.58;;;24.20;53.10;;;;;;5000979;28;20188;-75
2021/08/19 01:30:26;;;;;;;3.25;2.30;;;24.20;53.30;;;;;;4998369;28;20197;-74
2021/08/19 01:32:53;;;;;;;3.92;2.38;;;24.20;53.80;;;;;;5014592;28;20248;-76
2021/08/19 01:35:22;;;;;;;5.03;2.58;;;24.10;53.50;;;;;;4994659;28;20189;-75
2021/08/19 01:37:50;;;;;;;3.33;2.60;;;24.10;53.60;;;;;;4997121;28;20734;-74
2021/08/19 01:40:16;;;;;;;6.87;2.67;;;24.10;53.90;;;;;;5000634;28;20865;-73
2021/08/19 01:42:47;;;;;;;4.23;2.30;;;24.10;54.40;;;;;;5004922;28;20581;-75
2021/08/19 01:45:18;;;;;;;4.67;2.60;;;24.10;54.90;;;;;;5001476;28;20189;-74
2021/08/19 01:47:48;;;;;;;3.40;2.40;;;24.00;55.50;;;;;;5000853;28;20580;-75
2021/08/19 01:50:15;;;;;;;3.47;2.60;;;24.00;54.60;;;;;;5000286;28;20197;-74
2021/08/19 01:52:43;;;;;;;4.10;2.40;;;24.00;55.00;;;;;;4987477;28;20189;-74
2021/08/19 01:55:10;;;;;;;4.10;2.63;;;23.90;54.00;;;;;;5005814;28;20656;-74
2021/08/19 01:57:37;;;;;;;2.90;2.30;;;23.80;54.60;;;;;;4999652;28;20185;-75
2021/08/19 02:00:05;;;;;;;3.03;2.50;;;23.90;54.20;;;;;;4986916;28;20357;-75
2021/08/19 02:02:32;;;;;;;6.00;2.40;;;23.90;53.80;;;;;;5004797;28;20184;-76
2021/08/19 02:04:58;;;;;;;5.43;2.67;;;23.90;54.20;;;;;;4998099;28;20562;-74
2021/08/19 02:07:24;;;;;;;3.72;2.35;;;23.90;55.20;;;;;;4994428;28;20228;-74
2021/08/19 02:09:50;;;;;;;3.30;2.53;;;24.00;55.10;;;;;;5004605;28;20673;-74
2021/08/19 02:12:17;;;;;;;4.43;2.67;;;24.00;56.50;;;;;;5003428;28;20193;-75
2021/08/19 02:14:43;;;;;;;3.30;2.47;;;24.10;57.50;;;;;;5000374;28;20756;-75
2021/08/19 02:17:09;;;;;;;2.93;2.37;;;24.10;56.70;;;;;;5000825;28;20188;-74
2021/08/19 02:19:36;;;;;;;3.03;2.53;;;24.10;55.40;;;;;;5014375;28;20193;-74
2021/08/19 02:22:03;;;;;;;3.90;2.30;;;24.10;55.10;;;;;;5001631;28;20196;-75
2021/08/19 02:24:29;;;;;;;7.27;2.80;;;24.10;54.40;;;;;;5001586;28;20331;-74
2021/08/19 02:26:56;;;;;;;8.77;2.73;;;24.10;54.60;;;;;;5003286;28;20284;-74
2021/08/19 02:29:22;;;;;;;3.63;2.50;;;24.10;54.40;;;;;;5001197;28;20235;-75
2021/08/19 02:31:49;;;;;;;3.97;2.27;;;24.10;54.30;;;;;;5003371;28;20193;-74
2021/08/19 02:34:16;;;;;;;20.60;3.70;;;24.10;54.60;;;;;;4996605;28;20295;-74
2021/08/19 02:36:44;;;;;;;3.97;2.53;;;24.10;54.50;;;;;;4978825;28;20371;-76
2021/08/19 02:39:10;;;;;;;4.65;2.50;;;24.10;54.90;;;;;;4994268;28;20192;-75
2021/08/19 02:41:37;;;;;;;4.28;2.63;;;24.10;55.40;;;;;;5001190;28;20188;-73
2021/08/19 02:44:03;;;;;;;4.70;2.55;;;24.20;55.30;;;;;;5002460;28;20191;-75
2021/08/19 02:46:30;;;;;;;4.83;2.63;;;24.20;56.50;;;;;;4985423;28;20543;-75
2021/08/19 02:48:56;;;;;;;5.47;2.72;;;24.20;57.10;;;;;;4998107;28;20217;-73
2021/08/19 02:51:24;;;;;;;6.37;2.53;;;24.20;57.20;;;;;;5003497;28;20724;-74
2021/08/19 02:53:50;;;;;;;4.97;2.33;;;24.20;57.70;;;;;;4999318;28;20225;-73
2021/08/19 02:56:16;;;;;;;3.10;2.67;;;24.20;57.60;;;;;;5003194;28;20184;-76
2021/08/19 02:58:42;;;;;;;2.37;2.17;;;24.20;58.50;;;;;;5011791;28;20205;-73
2021/08/19 03:01:09;;;;;;;3.20;2.53;;;24.30;59.00;;;;;;5004312;28;20715;-74
2021/08/19 03:03:35;;;;;;;6.07;2.92;;;24.30;59.50;;;;;;5007274;28;20197;-75
2021/08/19 03:06:01;;;;;;;3.33;2.95;;;24.30;59.20;;;;;;5008002;28;20189;-75
2021/08/19 03:08:28;;;;;;;6.35;2.58;;;24.30;59.20;;;;;;4999644;28;20189;-75
2021/08/19 03:10:54;;;;;;;3.30;2.37;;;24.30;58.20;;;;;;5001342;28;20185;-76
2021/08/19 03:13:20;;;;;;;5.17;2.53;;;24.30;58.70;;;;;;5007033;28;20224;-76
2021/08/19 03:15:47;;;;;;;4.13;2.73;;;24.30;58.70;;;;;;5005866;28;20189;-75
2021/08/19 03:18:13;;;;;;;2.37;2.13;;;24.30;58.30;;;;;;5004822;28;20528;-76
2021/08/19 03:20:39;;;;;;;5.77;2.83;;;24.30;59.50;;;;;;5007531;28;20281;-76
2021/08/19 03:23:05;;;;;;;3.47;2.42;;;24.30;59.40;;;;;;5002908;28;20196;-73
2021/08/19 03:25:32;;;;;;;6.53;2.90;;;24.30;59.10;;;;;;4991025;28;20186;-75
2021/08/19 03:28:02;;;;;;;4.32;2.88;;;24.30;58.10;;;;;;4990589;28;20195;-74
2021/08/19 03:30:29;;;;;;;4.25;2.55;;;24.30;59.30;;;;;;5005468;28;20185;-75
2021/08/19 03:32:55;;;;;;;4.70;2.70;;;24.30;59.40;;;;;;5008420;28;20193;-71
2021/08/19 03:35:22;;;;;;;5.77;3.10;;;24.10;59.50;;;;;;5002211;28;20729;-74
2021/08/19 03:37:48;;;;;;;4.10;2.80;;;24.10;60.60;;;;;;5003239;28;20197;-75
2021/08/19 03:40:15;;;;;;;3.47;2.40;;;24.00;60.50;;;;;;5010213;28;20196;-75
2021/08/19 03:42:42;;;;;;;5.57;2.90;;;24.00;62.00;;;;;;5006725;28;20181;-74
2021/08/19 03:45:09;;;;;;;8.27;2.87;;;24.00;61.50;;;;;;4990799;28;20224;-74
2021/08/19 03:47:36;;;;;;;4.37;3.07;;;24.00;61.60;;;;;;5016231;28;20193;-75
2021/08/19 03:50:03;;;;;;;5.60;2.73;;;24.00;61.70;;;;;;4998765;28;20240;-76
2021/08/19 03:52:29;;;;;;;3.67;2.63;;;24.00;62.30;;;;;;5003502;28;20581;-74
2021/08/19 03:54:57;;;;;;;4.13;2.63;;;24.00;62.60;;;;;;5006205;28;20252;-74
2021/08/19 03:57:23;;;;;;;5.93;2.80;;;23.90;62.00;;;;;;5008299;28;20195;-75
2021/08/19 03:59:51;;;;;;;4.97;2.93;;;23.90;61.80;;;;;;5000322;28;20527;-74
2021/08/19 04:02:17;;;;;;;3.57;2.53;;;23.90;63.10;;;;;;5007542;28;21008;-74
2021/08/19 04:04:43;;;;;;;4.33;2.53;;;23.90;63.50;;;;;;5001671;28;20198;-74
2021/08/19 04:07:10;;;;;;;5.83;2.67;;;23.90;63.10;;;;;;5004611;28;20283;-73
2021/08/19 04:09:37;;;;;;;5.00;2.80;;;24.00;62.90;;;;;;4998948;28;20188;-75
2021/08/19 04:12:03;;;;;;;5.23;2.50;;;23.90;63.10;;;;;;5017097;28;20331;-75
2021/08/19 04:14:31;;;;;;;4.77;2.83;;;23.90;62.20;;;;;;5001953;28;20252;-75
2021/08/19 04:16:58;;;;;;;3.30;2.47;;;23.80;63.00;;;;;;5005167;28;20939;-73
2021/08/19 04:19:25;;;;;;;6.73;2.77;;;23.90;62.50;;;;;;5015332;28;20276;-76
2021/08/19 04:21:54;;;;;;;3.97;2.80;;;23.90;62.00;;;;;;5007757;28;20204;-74
2021/08/19 04:24:20;;;;;;;7.43;2.50;;;23.90;60.80;;;;;;5006601;28;20223;-76
2021/08/19 04:26:46;;;;;;;5.80;2.60;;;23.90;60.90;;;;;;5005013;28;20203;-75
2021/08/19 04:29:12;;;;;;;6.63;2.90;;;24.00;61.60;;;;;;5004169;28;20210;-75
2021/08/19 04:31:39;;;;;;;7.33;3.07;;;24.00;62.40;;;;;;5007138;28;20515;-74
2021/08/19 04:34:05;;;;;;;3.65;2.53;;;24.00;64.10;;;;;;5018833;28;20309;-75
2021/08/19 04:36:33;;;;;;;4.17;2.80;;;24.10;64.00;;;;;;5004591;28;20227;-75
2021/08/19 04:38:59;;;;;;;3.50;2.70;;;24.10;63.80;;;;;;4989310;28;20189;-74
2021/08/19 04:41:26;;;;;;;6.10;3.30;;;24.20;64.70;;;;;;4997304;28;20815;-74
2021/08/19 04:43:52;;;;;;;5.60;2.90;;;24.20;65.60;;;;;;4984346;28;20628;-75
2021/08/19 04:46:18;;;;;;;4.63;2.60;;;24.30;66.00;;;;;;5020014;28;20205;-75
2021/08/19 04:48:45;;;;;;;3.43;2.83;;;24.30;66.20;;;;;;5003962;28;21063;-75
2021/08/19 04:51:11;;;;;;;9.20;3.10;;;24.30;66.30;;;;;;4997475;28;20192;-76
2021/08/19 04:53:37;;;;;;;6.43;3.15;;;24.30;67.20;;;;;;5005278;28;20296;-74
2021/08/19 04:56:05;;;;;;;4.38;3.08;;;24.30;68.10;;;;;;4996554;28;20190;-75
2021/08/19 04:58:31;;;;;;;7.60;3.03;;;24.40;68.60;;;;;;5005983;28;20296;-74
2021/08/19 05:00:57;;;;;;;4.72;2.80;;;24.40;70.10;;;;;;5005318;28;20554;-76
2021/08/19 05:03:24;;;;;;;4.18;3.05;;;24.40;69.40;;;;;;5005942;28;20721;-76
2021/08/19 05:05:50;;;;;;;3.95;2.78;;;24.50;69.60;;;;;;5006695;28;20197;-74
2021/08/19 05:08:16;;;;;;;4.03;2.80;;;24.50;68.60;;;;;;4985569;28;20533;-73
2021/08/19 05:10:43;;;;;;;5.03;3.00;;;24.50;69.50;;;;;;4999545;28;20267;-74
2021/08/19 05:13:09;;;;;;;3.33;2.75;;;24.60;69.80;;;;;;4993890;28;20239;-72
2021/08/19 05:15:35;;;;;;;6.63;2.80;;;24.60;70.20;;;;;;5004417;28;20207;-72
2021/08/19 05:18:02;;;;;;;5.95;2.80;;;24.60;70.80;;;;;;4988182;28;20231;-74
2021/08/19 05:20:29;;;;;;;3.20;2.10;;;24.70;70.80;;;;;;5003024;28;20893;-73
2021/08/19 05:22:56;;;;;;;6.03;2.93;;;24.70;71.40;;;;;;5001408;28;20315;-73
2021/08/19 05:25:22;;;;;;;4.13;2.95;;;24.70;70.90;;;;;;4988616;28;20194;-71
2021/08/19 05:27:48;;;;;;;4.72;3.40;;;24.70;71.00;;;;;;5001910;28;20193;-73
2021/08/19 05:30:15;;;;;;;13.63;3.20;;;24.80;69.70;;;;;;5005500;28;20204;-72
2021/08/19 05:32:43;;;;;;;4.55;2.95;;;24.90;70.90;;;;;;5004211;28;20185;-73
2021/08/19 05:35:10;;;;;;;6.55;3.08;;;25.00;70.80;;;;;;4999219;28;20204;-74
2021/08/19 05:37:36;;;;;;;3.42;2.78;;;25.00;70.60;;;;;;4990954;28;20185;-73
2021/08/19 05:40:04;;;;;;;5.53;2.80;;;25.00;71.20;;;;;;5000346;28;20584;-74
2021/08/19 05:42:30;;;;;;;7.68;2.80;;;25.00;70.20;;;;;;5001315;28;20202;-75
2021/08/19 05:44:57;;;;;;;7.35;2.95;;;25.00;70.60;;;;;;5008420;28;21603;-73
2021/08/19 05:47:24;;;;;;;9.40;3.05;;;25.00;71.40;;;;;;5002084;28;20570;-75
2021/08/19 05:49:50;;;;;;;5.15;3.10;;;25.10;69.80;;;;;;5001486;28;20209;-75
2021/08/19 05:52:17;;;;;;;6.53;3.00;;;25.20;70.00;;;;;;4984243;28;20280;-74
2021/08/19 05:54:43;;;;;;;4.90;3.03;;;25.20;69.40;;;;;;4999536;28;20221;-74
2021/08/19 05:57:12;;;;;;;4.03;3.05;;;25.30;70.20;;;;;;5004852;28;20250;-76
2021/08/19 05:59:39;;;;;;;4.70;3.15;;;25.30;68.60;;;;;;4999079;28;20673;-73
2021/08/19 06:02:08;;;;;;;5.00;3.15;;;25.30;69.20;;;;;;5006675;28;20755;-77
2021/08/19 06:04:36;;;;;;;9.55;3.20;;;25.30;71.20;;;;;;5020988;28;20537;-77
2021/08/19 06:07:04;;;;;;;3.60;2.70;;;25.40;69.10;;;;;;4987723;28;20196;-77
2021/08/19 06:09:31;;;;;;;7.43;2.95;;;25.40;69.60;;;;;;4987104;28;20200;-73
2021/08/19 06:12:00;;;;;;;7.75;3.10;;;25.50;67.00;;;;;;4991020;28;20283;-74
2021/08/19 06:14:27;;;;;;;4.85;2.80;;;25.50;68.60;;;;;;4998227;28;20213;-76
2021/08/19 06:16:57;;;;;;;4.40;3.13;;;25.50;68.10;;;;;;5008799;28;20187;-73
2021/08/19 06:19:35;;;;;;;5.60;3.22;;;25.50;69.30;;;;;;5003906;28;20181;-73
2021/08/19 06:22:03;;;;;;;6.25;3.03;;;25.50;67.90;;;;;;5012847;28;20188;-76
2021/08/19 06:24:32;;;;;;;3.83;2.97;;;25.60;67.40;;;;;;5005223;28;20196;-76
2021/08/19 06:26:59;;;;;;;5.28;2.90;;;25.70;69.20;;;;;;5005936;28;20208;-73
2021/08/19 06:29:26;;;;;;;4.78;2.88;;;25.80;64.40;;;;;;4991309;28;20199;-75
2021/08/19 06:31:52;;;;;;;7.28;3.03;;;25.90;65.40;;;;;;5005810;28;20188;-74
2021/08/19 06:34:22;;;;;;;5.03;3.10;;;26.10;63.00;;;;;;4999834;28;20209;-75
2021/08/19 06:36:49;;;;;;;9.48;3.22;;;26.20;63.80;;;;;;5006084;28;20192;-76
2021/08/19 06:39:17;;;;;;;4.28;2.88;;;26.30;65.50;;;;;;5005902;28;20642;-75
2021/08/19 06:41:45;;;;;;;7.55;3.00;;;26.40;65.40;;;;;;5009615;28;20180;-73
2021/08/19 06:44:12;;;;;;;9.20;2.97;;;26.40;65.30;;;;;;5005200;28;20204;-75
2021/08/19 06:46:43;;;;;;;11.18;3.10;;;26.30;66.20;;;;;;4985321;28;20217;-74
2021/08/19 06:49:12;;;;;;;6.93;3.33;;;26.60;63.70;;;;;;4985827;28;20213;-75
2021/08/19 06:51:41;;;;;;;10.15;3.03;;;26.60;65.70;;;;;;5007687;28;20188;-76
2021/08/19 06:54:08;;;;;;;9.27;3.00;;;26.60;66.10;;;;;;4969941;28;20629;-74
2021/08/19 06:56:35;;;;;;;8.05;3.53;;;26.50;66.40;;;;;;4984597;28;20587;-76
2021/08/19 06:59:02;;;;;;;6.53;3.10;;;26.70;63.70;;;;;;5006146;28;20200;-74
2021/08/19 07:01:29;;;;;;;9.35;3.35;;;26.80;65.40;;;;;;5001615;28;20643;-74
2021/08/19 07:03:56;;;;;;;6.07;3.45;;;27.00;65.40;;;;;;5003458;28;20589;-74
2021/08/19 07:06:34;;;;;;;6.68;3.47;;;27.00;63.70;;;;;;4999598;28;20557;-75
2021/08/19 07:09:01;;;;;;;7.38;3.15;;;27.30;63.00;;;;;;5000633;28;20185;-73
2021/08/19 07:11:28;;;;;;;9.00;3.05;;;27.10;65.60;;;;;;5003989;28;20201;-75
2021/08/19 07:13:55;;;;;;;9.07;3.25;;;27.20;63.40;;;;;;4988367;28;20227;-72
2021/08/19 07:16:22;;;;;;;12.88;3.25;;;27.30;63.20;;;;;;4991669;28;22410;-75
2021/08/19 07:18:50;;;;;;;8.75;3.00;;;27.50;64.30;;;;;;5003516;28;20883;-75
2021/08/19 07:21:17;;;;;;;8.55;3.20;;;27.60;63.80;;;;;;5001448;28;20716;-75
2021/08/19 07:23:44;;;;;;;6.88;3.75;;;27.70;66.70;;;;;;5004046;28;20238;-75
2021/08/19 07:26:10;;;;;;;8.27;3.40;;;27.60;64.10;;;;;;4997173;28;20355;-73
2021/08/19 07:28:37;;;;;;;6.93;3.20;;;27.90;65.90;;;;;;5000226;28;20577;-75
2021/08/19 07:31:03;;;;;;;7.07;2.90;;;28.10;66.40;;;;;;5002294;28;20195;-75
2021/08/19 07:33:30;;;;;;;8.35;3.47;;;28.40;65.00;;;;;;5000399;28;20279;-75
2021/08/19 07:35:56;;;;;;;11.13;3.63;;;28.30;66.90;;;;;;5003563;28;20285;-75
2021/08/19 07:38:23;;;;;;;9.15;3.35;;;28.50;72.00;;;;;;5002753;28;20200;-75
2021/08/19 07:40:51;;;;;;;7.72;3.33;;;28.80;72.70;;;;;;5001621;28;20189;-75
2021/08/19 07:43:21;;;;;;;17.67;3.72;;;28.90;71.90;;;;;;5001482;28;20224;-75
2021/08/19 07:45:47;;;;;;;11.13;3.20;;;29.10;74.30;;;;;;4998953;28;20200;-75
2021/08/19 07:48:15;;;;;;;8.23;3.47;;;29.30;76.10;;;;;;4999282;28;20221;-75
2021/08/19 07:50:43;;;;;;;5.72;3.42;;;29.30;77.20;;;;;;5004468;28;20606;-75
2021/08/19 07:53:11;;;;;;;9.55;3.55;;;29.40;77.40;;;;;;4991525;28;20246;-75
2021/08/19 07:55:40;;;;;;;6.55;3.30;;;29.50;80.00;;;;;;5007546;28;20315;-75
2021/08/19 07:58:06;;;;;;;11.52;3.38;;;29.60;78.30;;;;;;5003745;28;20193;-75
2021/08/19 08:00:35;;;;;;;16.23;3.67;;;29.60;84.20;;;;;;5001434;28;20247;-75
2021/08/19 08:03:03;;;;;;;8.40;3.58;;;29.70;87.70;;;;;;5003889;28;20584;-75
2021/08/19 08:05:35;;;;;;;15.68;3.88;;;29.80;87.60;;;;;;5007113;28;20610;-75
2021/08/19 08:08:08;;;;;;;9.18;3.67;;;29.90;91.30;;;;;;5017913;28;20189;-76
2021/08/19 08:10:38;;;;;;;12.15;3.83;;;30.00;92.00;;;;;;5004251;28;20323;-76
2021/08/19 08:13:06;;;;;;;11.57;4.07;;;30.00;92.10;;;;;;5005379;28;20882;-75
2021/08/19 08:15:37;;;;;;;11.65;4.07;;;30.00;93.20;;;;;;5018185;28;20181;-75
2021/08/19 08:18:05;;;;;;;9.02;3.47;;;29.80;93.40;;;;;;4980720;28;20995;-76
2021/08/19 08:20:33;;;;;;;12.52;4.15;;;29.90;93.80;;;;;;5003953;28;20185;-75
2021/08/19 08:23:01;;;;;;;10.60;3.70;;;29.90;94.90;;;;;;4988348;28;20195;-76
2021/08/19 08:25:28;;;;;;;6.03;3.30;;;29.90;94.70;;;;;;5005098;28;20197;-75
2021/08/19 08:28:05;;;;;;;6.53;3.33;;;30.00;95.50;;;;;;5005508;28;20285;-74
2021/08/19 08:30:33;;;;;;;8.18;3.50;;;30.00;94.70;;;;;;5003459;28;20185;-74
2021/08/19 08:33:00;;;;;;;9.63;4.00;;;29.80;94.20;;;;;;5005291;28;20189;-74
2021/08/19 08:35:27;;;;;;;7.00;3.58;;;29.80;94.30;;;;;;5005279;28;20197;-74
2021/08/19 08:37:53;;;;;;;8.85;4.00;;;29.90;94.90;;;;;;5004224;28;20221;-74
2021/08/19 08:40:20;;;;;;;13.98;4.25;;;30.10;94.50;;;;;;5006089;28;20208;-74
2021/08/19 08:42:46;;;;;;;12.25;4.20;;;30.30;94.60;;;;;;4992525;28;20204;-74
2021/08/19 08:45:13;;;;;;;9.05;3.40;;;30.50;94.70;;;;;;5006284;28;20195;-74
2021/08/19 08:47:41;;;;;;;9.48;3.53;;;30.50;94.10;;;;;;5001403;28;20184;-73
2021/08/19 08:50:10;;;;;;;13.48;4.15;;;30.60;94.30;;;;;;4993219;28;20216;-74
2021/08/19 08:52:39;;;;;;;15.20;4.53;;;30.70;93.60;;;;;;5004158;28;20225;-74
2021/08/19 08:55:07;;;;;;;11.07;3.90;;;30.70;93.40;;;;;;5006393;28;20757;-74
2021/08/19 08:57:37;;;;;;;12.13;4.20;;;30.90;93.30;;;;;;4986977;28;20185;-73
2021/08/19 09:00:07;;;;;;;7.90;3.67;;;30.80;92.70;;;;;;4985709;28;20595;-73
2021/08/19 09:02:35;;;;;;;6.53;3.35;;;30.80;92.60;;;;;;4986346;28;20189;-74
2021/08/19 09:05:22;;;;;;;16.13;3.90;;;30.80;93.40;;;;;;4989757;28;20208;-73
2021/08/19 09:07:57;;;;;;;7.82;3.55;;;30.90;94.00;;;;;;5003763;28;20185;-73
2021/08/19 09:10:33;;;;;;;10.90;3.70;;;31.10;94.30;;;;;;4982089;28;20200;-74
2021/08/19 09:13:14;;;;;;;9.57;4.13;;;31.20;95.40;;;;;;5006185;28;20199;-74
2021/08/19 09:15:42;;;;;;;8.77;4.00;;;31.20;94.70;;;;;;5003667;28;21013;-74
2021/08/19 09:18:09;;;;;;;7.88;3.58;;;31.20;95.80;;;;;;5004133;28;20204;-74
2021/08/19 09:20:43;;;;;;;11.85;4.20;;;31.30;95.80;;;;;;4996372;28;20188;-73
2021/08/19 09:23:14;;;;;;;8.32;3.78;;;31.20;95.30;;;;;;4987044;28;20220;-73
2021/08/19 09:25:45;;;;;;;10.02;3.67;;;31.30;94.40;;;;;;5002014;28;20189;-73
2021/08/19 09:28:28;;;;;;;11.98;3.97;;;31.30;94.00;;;;;;5001153;28;20529;-74
2021/08/19 09:31:06;;;;;;;8.73;4.00;;;31.40;94.50;;;;;;5008210;28;20254;-73
2021/08/19 09:33:37;;;;;;;6.30;3.58;;;31.40;95.40;;;;;;5019413;28;20837;-73
2021/08/19 09:36:06;;;;;;;8.20;3.78;;;31.40;93.70;;;;;;5005784;28;20183;-73
2021/08/19 09:38:44;;;;;;;10.02;4.18;;;31.30;93.40;;;;;;5003682;28;20193;-73
2021/08/19 09:41:18;;;;;;;9.55;3.70;;;31.60;92.50;;;;;;5002929;28;20188;-73
2021/08/19 09:43:48;;;;;;;9.50;4.00;;;31.70;93.40;;;;;;5002996;28;20304;-73
2021/08/19 09:46:34;;;;;;;7.07;3.80;;;31.80;94.10;;;;;;5016381;28;20197;-75
2021/08/19 09:49:27;;;;;;;8.23;3.90;;;32.40;94.30;;;;;;4998565;28;20240;-73
2021/08/19 09:52:08;;;;;;;12.52;4.43;;;32.40;93.40;;;;;;4998583;28;20193;-76
2021/08/19 09:54:38;;;;;;;7.35;3.60;;;32.30;93.50;;;;;;5008569;28;20233;-75
2021/08/19 09:57:08;;;;;;;8.63;3.63;;;32.30;93.50;;;;;;5009966;28;20287;-73
2021/08/19 09:59:39;;;;;;;10.57;4.03;;;32.60;93.60;;;;;;5018562;28;20193;-73
2021/08/19 10:02:10;;;;;;;12.05;3.92;;;33.10;92.50;;;;;;5008932;28;20188;-73
2021/08/19 10:04:37;;;;;;;12.23;3.78;;;33.00;92.60;;;;;;5004327;28;20240;-74
2021/08/19 10:07:06;;;;;;;7.63;3.80;;;32.90;92.30;;;;;;4975974;28;20217;-73
2021/08/19 10:09:32;;;;;;;9.88;3.90;;;32.60;92.70;;;;;;5005240;28;20189;-73
2021/08/19 10:12:03;;;;;;;10.13;4.53;;;32.70;92.60;;;;;;5021134;28;20188;-73
2021/08/19 10:14:31;;;;;;;9.05;4.03;;;32.90;92.60;;;;;;5005822;28;20706;-73
2021/08/19 10:16:58;;;;;;;14.10;3.97;;;34.40;91.30;;;;;;5009153;28;20232;-73
2021/08/19 10:19:44;;;;;;;16.95;3.75;;;36.60;85.60;;;;;;5008937;28;20738;-73
2021/08/19 10:22:21;;;;;;;9.10;3.38;;;37.40;82.00;;;;;;5000526;28;20188;-73
2021/08/19 10:25:11;;;;;;;10.88;4.18;;;36.80;82.00;;;;;;5008378;28;20650;-73
2021/08/19 10:27:39;;;;;;;11.27;4.00;;;35.60;83.00;;;;;;5012620;28;20208;-73
2021/08/19 10:30:19;;;;;;;9.43;4.13;;;35.10;81.20;;;;;;5002184;28;20193;-73
2021/08/19 10:32:56;;;;;;;12.27;4.25;;;34.90;81.20;;;;;;5005222;28;20270;-73
2021/08/19 10:35:27;;;;;;;13.07;3.88;;;34.90;81.20;;;;;;4986388;28;20215;-73
2021/08/19 10:37:54;;;;;;;10.77;3.70;;;36.60;77.40;;;;;;5009901;28;20184;-73
2021/08/19 10:40:27;;;;;;;11.93;3.30;;;37.10;76.30;;;;;;5020777;28;20189;-74
2021/08/19 10:43:01;;;;;;;8.02;3.60;;;37.20;71.10;;;;;;4989839;28;20610;-74
2021/08/19 10:45:27;;;;;;;10.80;3.78;;;38.30;68.20;;;;;;5010061;28;20200;-74
2021/08/19 10:48:04;;;;;;;10.32;3.65;;;36.50;71.60;;;;;;4989178;28;20200;-73
2021/08/19 10:50:38;;;;;;;9.70;3.22;;;35.50;72.40;;;;;;5002584;28;20235;-73
2021/08/19 10:53:28;;;;;;;10.48;4.28;;;34.70;71.60;;;;;;4982545;28;20193;-73
2021/08/19 10:55:58;;;;;;;9.30;3.50;;;34.50;71.30;;;;;;5008384;28;20192;-73
2021/08/19 10:58:36;;;;;;;11.73;3.50;;;34.30;72.70;;;;;;5006601;28;20326;-73
2021/08/19 11:01:18;;;;;;;7.18;3.45;;;34.20;72.20;;;;;;5018434;28;20184;-73
2021/08/19 11:03:51;;;;;;;11.85;3.75;;;34.10;72.20;;;;;;5010905;28;20283;-73
2021/08/19 11:06:44;;;;;;;11.43;3.67;;;34.00;73.70;;;;;;4990662;28;20192;-73
2021/08/19 11:09:17;;;;;;;15.00;4.03;;;33.90;74.80;;;;;;5003514;28;20208;-73
2021/08/19 11:11:45;;;;;;;6.07;3.38;;;33.70;74.60;;;;;;5006088;28;20186;-73
2021/08/19 11:14:18;;;;;;;11.50;3.67;;;33.90;74.90;;;;;;4998912;28;20653;-73
2021/08/19 11:16:57;;;;;;;12.38;3.60;;;34.10;74.40;;;;;;5002800;28;20177;-73
2021/08/19 11:19:30;;;;;;;7.57;3.42;;;34.30;74.30;;;;;;5000981;28;20276;-73
2021/08/19 11:22:03;;;;;;;9.10;4.07;;;33.90;75.20;;;;;;5010442;28;20193;-72
2021/08/19 11:24:34;;;;;;;9.45;3.20;;;33.80;74.30;;;;;;5003525;28;20787;-73
2021/08/19 11:27:08;;;;;;;13.30;3.85;;;33.50;74.90;;;;;;5009020;28;20279;-73
2021/08/19 11:29:44;;;;;;;5.97;3.22;;;33.80;74.40;;;;;;5008850;28;20638;-73
2021/08/19 11:32:15;;;;;;;8.60;3.88;;;33.80;74.80;;;;;;5009583;28;20672;-73
2021/08/19 11:34:51;;;;;;;4.90;3.42;;;33.60;73.60;;;;;;5008775;28;20541;-73
2021/08/19 11:37:31;;;;;;;7.15;3.75;;;33.80;74.30;;;;;;5009581;28;20180;-73
2021/08/19 11:40:03;;;;;;;11.68;3.67;;;33.80;73.80;;;;;;5005356;28;20305;-73
2021/08/19 11:42:34;;;;;;;10.40;3.58;;;33.50;74.80;;;;;;5009567;28;20669;-73
2021/08/19 11:45:22;;;;;;;9.88;3.47;;;33.30;74.60;;;;;;5012994;28;20185;-73
2021/08/19 11:47:52;;;;;;;8.00;4.00;;;33.40;73.50;;;;;;5009097;28;20274;-73
2021/08/19 11:50:24;;;;;;;12.15;3.55;;;33.30;73.80;;;;;;5012672;28;20200;-73
2021/08/19 11:52:59;;;;;;;8.38;3.55;;;33.70;73.50;;;;;;4988387;28;20728;-72
2021/08/19 11:55:32;;;;;;;7.95;3.72;;;33.80;73.50;;;;;;5000800;28;20241;-73
2021/08/19 11:58:24;;;;;;;9.18;3.45;;;33.90;72.80;;;;;;5004434;28;20177;-73
2021/08/19 12:01:09;;;;;;;8.68;3.90;;;33.70;75.00;;;;;;5012661;28;20233;-73
2021/08/19 12:03:39;;;;;;;8.50;3.20;;;33.90;70.20;;;;;;4999762;28;20189;-73
2021/08/19 12:06:17;;;;;;;7.40;3.88;;;34.00;70.60;;;;;;5005757;28;20251;-73
2021/08/19 12:08:54;;;;;;;9.52;3.63;;;33.80;70.20;;;;;;5005749;28;20854;-73
2021/08/19 12:11:30;;;;;;;6.97;3.78;;;33.90;69.40;;;;;;5008721;28;20189;-73
2021/08/19 12:14:00;;;;;;;10.07;3.75;;;34.10;69.90;;;;;;5009766;28;20209;-73
2021/08/19 12:16:30;;;;;;;10.02;3.65;;;34.10;67.90;;;;;;5012036;28;20195;-73
2021/08/19 12:19:14;;;;;;;11.55;4.43;;;34.20;67.90;;;;;;5003795;28;20927;-73
2021/08/19 12:21:52;;;;;;;9.30;3.58;;;34.20;69.50;;;;;;5004951;28;20209;-73
2021/08/19 12:24:30;;;;;;;9.43;3.80;;;34.20;69.30;;;;;;5003548;28;20197;-73
2021/08/19 12:27:14;;;;;;;7.57;3.72;;;34.20;70.00;;;;;;5002958;28;21640;-73
2021/08/19 12:29:56;;;;;;;7.68;3.95;;;34.10;70.70;;;;;;5016338;28;20666;-73
2021/08/19 12:32:26;;;;;;;8.18;3.92;;;34.20;68.60;;;;;;4985750;28;20193;-73
2021/08/19 12:35:03;;;;;;;11.85;4.18;;;34.10;70.60;;;;;;5007499;28;20209;-73
2021/08/19 12:37:34;;;;;;;7.85;3.90;;;34.00;68.60;;;;;;5008511;28;20308;-73
2021/08/19 12:40:13;;;;;;;7.90;3.90;;;33.60;70.90;;;;;;5009573;28;20181;-73
2021/08/19 12:42:43;;;;;;;6.72;3.47;;;33.70;67.60;;;;;;5006818;28;20685;-73
2021/08/19 12:45:21;;;;;;;11.15;4.28;;;33.90;67.20;;;;;;4993555;28;20211;-73
2021/08/19 12:48:01;;;;;;;10.23;3.60;;;33.60;67.00;;;;;;5011013;28;20273;-73
2021/08/19 12:50:28;;;;;;;7.25;3.50;;;33.90;68.20;;;;;;5007957;28;20192;-73
2021/08/19 12:53:14;;;;;;;17.02;3.92;;;33.40;71.20;;;;;;5008545;28;20242;-72
2021/08/19 12:55:41;;;;;;;9.25;3.83;;;33.30;72.90;;;;;;4997879;28;20196;-73
2021/08/19 12:58:09;;;;;;;9.45;4.05;;;33.10;73.50;;;;;;5004825;28;20203;-73